createdAt,value
2022-12-16T00:01:35.574Z,19.40
2022-12-16T00:04:02.775Z,22.63
2022-12-16T00:06:32.770Z,20.02
2022-12-16T00:09:01.200Z,19.20
2022-12-16T00:11:29.119Z,21.98
2022-12-16T00:13:56.317Z,21.60
2022-12-16T00:16:23.601Z,19.30
2022-12-16T00:18:51.785Z,23.27
2022-12-16T00:21:19.843Z,18.50
2022-12-16T00:23:47.395Z,18.45
2022-12-16T00:26:14.610Z,18.45
2022-12-16T00:28:44.083Z,21.80
2022-12-16T00:31:11.443Z,23.73
2022-12-16T00:33:38.665Z,18.27
2022-12-16T00:36:06.004Z,20.02
2022-12-16T00:38:33.103Z,22.02
2022-12-16T00:41:00.518Z,22.42
2022-12-16T00:43:27.846Z,22.55
2022-12-16T00:45:55.022Z,20.05
2022-12-16T00:48:25.754Z,21.42
2022-12-16T00:50:55.116Z,21.58
2022-12-16T00:53:24.165Z,22.40
2022-12-16T00:55:52.384Z,16.23
2022-12-16T00:58:20.811Z,17.42
2022-12-16T01:00:48.068Z,19.23
2022-12-16T01:03:21.077Z,19.60
2022-12-16T01:05:49.271Z,20.00
2022-12-16T01:08:16.335Z,19.00
2022-12-16T01:10:43.558Z,19.30
2022-12-16T01:13:10.882Z,17.63
2022-12-16T01:15:38.064Z,17.27
2022-12-16T01:18:05.550Z,19.23
2022-12-16T01:20:34.605Z,11.20
2022-12-16T01:23:01.755Z,16.58
2022-12-16T01:25:28.928Z,16.52
2022-12-16T01:27:56.347Z,18.10
2022-12-16T01:30:23.884Z,17.90
2022-12-16T01:32:51.449Z,16.70
2022-12-16T01:35:51.524Z,18.13
2022-12-16T01:38:06.538Z,13.38
2022-12-16T01:40:33.659Z,16.83
2022-12-16T01:43:01.443Z,17.48
2022-12-16T01:45:30.934Z,15.18
2022-12-16T01:48:17.929Z,11.25
2022-12-16T01:50:46.080Z,15.40
2022-12-16T01:53:29.035Z,15.05
2022-12-16T01:55:57.931Z,12.27
2022-12-16T01:58:30.202Z,17.30
2022-12-16T02:00:57.846Z,10.18
2022-12-16T02:03:26.332Z,13.35
2022-12-16T02:05:53.919Z,10.35
2022-12-16T02:08:22.939Z,14.38
2022-12-16T02:11:12.989Z,16.20
2022-12-16T02:14:09.890Z,10.20
2022-12-16T02:17:03.607Z,14.77
2022-12-16T02:19:42.722Z,14.60
2022-12-16T02:22:35.088Z,12.32
2022-12-16T02:25:26.240Z,9.40
2022-12-16T02:28:11.951Z,14.77
2022-12-16T02:31:30.902Z,12.02
2022-12-16T02:34:24.513Z,14.75
2022-12-16T02:37:04.468Z,9.93
2022-12-16T02:39:39.804Z,15.57
2022-12-16T02:42:17.342Z,11.65
2022-12-16T02:45:04.830Z,16.08
2022-12-16T02:47:33.454Z,13.77
2022-12-16T02:50:01.099Z,11.35
2022-12-16T02:52:32.454Z,10.48
2022-12-16T02:55:07.252Z,12.95
2022-12-16T02:58:06.527Z,11.10
2022-12-16T03:00:47.307Z,16.10
2022-12-16T03:03:48.289Z,12.30
2022-12-16T03:06:18.219Z,9.50
2022-12-16T03:08:51.858Z,11.52
2022-12-16T03:11:19.585Z,12.65
2022-12-16T03:13:50.877Z,14.55
2022-12-16T03:16:21.572Z,12.77
2022-12-16T03:18:54.983Z,13.52
2022-12-16T03:21:24.956Z,13.45
2022-12-16T03:24:00.377Z,20.20
2022-12-16T03:27:04.961Z,10.80
2022-12-16T03:29:50.487Z,14.20
2022-12-16T03:32:33.043Z,12.43
2022-12-16T03:35:25.223Z,17.52
2022-12-16T03:37:55.726Z,14.95
2022-12-16T03:40:25.535Z,12.40
2022-12-16T03:42:54.250Z,14.80
2022-12-16T03:45:28.272Z,16.75
2022-12-16T03:47:59.562Z,13.50
2022-12-16T03:53:18.654Z,14.82
2022-12-16T03:55:45.992Z,14.95
2022-12-16T03:58:13.013Z,14.82
2022-12-16T04:00:40.020Z,13.90
2022-12-16T04:03:08.182Z,15.23
2022-12-16T04:05:35.906Z,13.30
2022-12-16T04:08:02.985Z,12.93
2022-12-16T04:10:48.913Z,11.18
2022-12-16T04:13:34.931Z,14.48
2022-12-16T04:16:20.922Z,13.43
2022-12-16T04:19:06.953Z,11.63
2022-12-16T04:21:52.898Z,9.68
2022-12-16T04:24:32.767Z,10.13
2022-12-16T04:27:18.250Z,11.63
2022-12-16T04:30:03.936Z,14.20
2022-12-16T04:32:53.121Z,12.52
2022-12-16T04:35:39.424Z,12.63
2022-12-16T04:38:25.350Z,20.00
2022-12-16T04:41:11.085Z,13.73
2022-12-16T04:43:57.381Z,11.48
2022-12-16T04:46:43.647Z,13.70
2022-12-16T04:49:29.972Z,13.60
2022-12-16T04:52:15.727Z,12.18
2022-12-16T04:55:01.361Z,15.38
2022-12-16T05:00:53.164Z,13.30
2022-12-16T05:03:41.100Z,13.25
2022-12-16T05:06:26.983Z,14.43
2022-12-16T05:09:13.144Z,13.45
2022-12-16T05:11:58.853Z,17.02
2022-12-16T05:14:44.695Z,15.70
2022-12-16T05:17:30.613Z,13.52
2022-12-16T05:20:16.149Z,14.93
2022-12-16T05:23:01.954Z,14.02
2022-12-16T05:25:47.676Z,14.60
2022-12-16T05:28:33.414Z,17.48
2022-12-16T05:31:19.284Z,13.02
2022-12-16T05:34:05.102Z,12.90
2022-12-16T05:36:50.926Z,15.40
2022-12-16T05:39:36.681Z,10.95
2022-12-16T05:42:22.288Z,12.63
2022-12-16T05:45:08.049Z,12.73
2022-12-16T05:47:54.137Z,17.02
2022-12-16T05:50:40.038Z,12.38
2022-12-16T05:53:25.817Z,13.50
2022-12-16T05:56:11.719Z,11.77
2022-12-16T05:58:57.227Z,12.50
2022-12-16T06:01:42.909Z,11.40
2022-12-16T06:04:28.800Z,11.52
2022-12-16T06:07:14.702Z,11.82
2022-12-16T06:10:00.441Z,11.63
2022-12-16T06:12:46.145Z,13.52
2022-12-16T06:15:31.907Z,9.98
2022-12-16T06:18:17.798Z,10.02
2022-12-16T06:21:03.520Z,11.20
2022-12-16T06:23:49.309Z,24.10
2022-12-16T06:26:34.949Z,10.65
2022-12-16T06:29:20.587Z,10.60
2022-12-16T06:32:06.293Z,11.68
2022-12-16T06:34:52.109Z,10.60
2022-12-16T06:37:37.710Z,11.43
2022-12-16T06:40:24.190Z,11.07
2022-12-16T06:43:09.868Z,10.40
2022-12-16T06:45:55.663Z,10.27
2022-12-16T06:48:41.660Z,10.68
2022-12-16T06:51:27.492Z,10.30
2022-12-16T06:54:13.357Z,11.18
2022-12-16T06:57:00.379Z,12.13
2022-12-16T06:59:46.244Z,13.52
2022-12-16T07:02:32.347Z,10.23
2022-12-16T07:05:19.475Z,13.15
2022-12-16T07:08:09.101Z,10.23
2022-12-16T07:10:58.715Z,9.30
2022-12-16T07:13:48.895Z,10.57
2022-12-16T07:16:34.738Z,10.65
2022-12-16T07:19:20.615Z,10.32
2022-12-16T07:22:06.266Z,10.57
2022-12-16T07:24:52.291Z,11.55
2022-12-16T07:27:37.982Z,9.07
2022-12-16T07:30:24.176Z,10.55
2022-12-16T07:33:09.920Z,11.07
2022-12-16T07:35:55.854Z,10.90
2022-12-16T07:38:41.539Z,10.35
2022-12-16T07:41:27.246Z,10.93
2022-12-16T07:44:13.026Z,11.38
2022-12-16T07:46:58.991Z,10.82
2022-12-16T07:49:44.653Z,10.77
2022-12-16T07:52:30.566Z,14.38
2022-12-16T07:55:16.233Z,11.80
2022-12-16T07:58:09.054Z,11.82
2022-12-16T08:00:55.424Z,12.55
2022-12-16T08:03:58.386Z,11.30
2022-12-16T08:06:44.527Z,9.93
2022-12-16T08:09:30.532Z,11.40
2022-12-16T08:12:16.292Z,12.20
2022-12-16T08:15:01.943Z,11.02
2022-12-16T08:17:50.285Z,9.93
2022-12-16T08:20:38.723Z,13.63
2022-12-16T08:23:24.397Z,10.98
2022-12-16T08:26:10.162Z,12.70
2022-12-16T08:28:59.328Z,12.52
2022-12-16T08:31:55.798Z,11.75
2022-12-16T08:34:41.554Z,17.88
2022-12-16T08:37:27.641Z,10.38
2022-12-16T08:43:19.328Z,11.38
2022-12-16T08:46:05.181Z,14.88
2022-12-16T08:48:50.969Z,13.40
2022-12-16T08:51:36.676Z,17.38
2022-12-16T08:54:22.672Z,11.32
2022-12-16T08:57:08.500Z,11.80
2022-12-16T08:59:54.398Z,12.13
2022-12-16T09:02:40.508Z,12.57
2022-12-16T09:05:26.749Z,15.75
2022-12-16T09:08:17.138Z,11.80
2022-12-16T09:11:02.897Z,11.35
2022-12-16T09:13:48.657Z,14.48
2022-12-16T09:16:34.733Z,11.88
2022-12-16T09:19:20.504Z,12.60
2022-12-16T09:22:07.649Z,12.07
2022-12-16T09:24:54.565Z,11.90
2022-12-16T09:27:42.018Z,13.10
2022-12-16T09:30:28.186Z,11.27
2022-12-16T09:33:13.841Z,11.95
2022-12-16T09:35:59.604Z,10.07
2022-12-16T09:38:45.266Z,11.60
2022-12-16T09:41:45.193Z,11.65
2022-12-16T09:44:43.154Z,10.98
2022-12-16T09:47:39.472Z,9.95
2022-12-16T09:50:44.870Z,11.02
2022-12-16T09:53:39.091Z,10.75
2022-12-16T09:56:32.978Z,14.63
2022-12-16T09:59:23.865Z,9.88
2022-12-16T10:02:10.357Z,9.75
2022-12-16T10:04:55.941Z,10.73
2022-12-16T10:07:42.471Z,10.82
2022-12-16T10:10:51.802Z,11.38
2022-12-16T10:14:07.687Z,11.20
2022-12-16T10:17:21.961Z,10.25
2022-12-16T10:20:33.354Z,10.25
2022-12-16T10:23:29.742Z,10.77
2022-12-16T10:26:33.746Z,12.65
2022-12-16T10:29:40.499Z,12.80
2022-12-16T10:32:46.179Z,11.15
2022-12-16T10:35:48.251Z,11.43
2022-12-16T10:39:05.417Z,12.68
2022-12-16T10:41:56.567Z,11.25
2022-12-16T10:45:10.287Z,10.45
2022-12-16T10:50:42.075Z,11.15
2022-12-16T10:53:34.479Z,10.68
2022-12-16T10:56:51.796Z,12.25
2022-12-16T10:59:38.135Z,12.25
2022-12-16T11:02:37.725Z,11.88
2022-12-16T11:05:51.491Z,11.52
2022-12-16T11:08:55.695Z,11.82
2022-12-16T11:11:44.812Z,8.45
2022-12-16T11:15:05.482Z,9.85
2022-12-16T11:17:52.252Z,9.98
2022-12-16T11:20:42.635Z,8.07
2022-12-16T11:23:43.206Z,8.20
2022-12-16T11:26:37.997Z,10.27
2022-12-16T11:29:35.080Z,9.00
2022-12-16T11:32:23.207Z,9.45
2022-12-16T11:35:13.407Z,11.93
2022-12-16T11:38:01.559Z,11.15
2022-12-16T11:40:49.120Z,13.57
2022-12-16T11:43:37.155Z,10.25
2022-12-16T11:46:28.944Z,12.52
2022-12-16T11:49:25.408Z,8.93
2022-12-16T11:52:36.549Z,9.93
2022-12-16T11:58:51.124Z,9.45
2022-12-16T12:02:05.260Z,9.05
2022-12-16T12:04:51.153Z,8.65
2022-12-16T12:08:02.248Z,8.02
2022-12-16T12:10:48.039Z,6.78
2022-12-16T12:14:07.040Z,9.80
2022-12-16T12:16:52.745Z,11.05
2022-12-16T12:19:48.141Z,9.02
2022-12-16T12:22:48.533Z,13.57
2022-12-16T12:25:48.006Z,10.10
2022-12-16T12:28:51.696Z,9.68
2022-12-16T12:32:12.036Z,12.48
2022-12-16T12:34:57.904Z,10.30
2022-12-16T12:38:01.545Z,9.18
2022-12-16T12:40:52.814Z,10.43
2022-12-16T12:44:12.424Z,9.55
2022-12-16T12:47:01.936Z,10.25
2022-12-16T12:50:16.477Z,9.18
2022-12-16T12:53:20.688Z,10.27
2022-12-16T12:56:34.548Z,9.90
2022-12-16T12:59:24.903Z,13.68
2022-12-16T13:02:13.452Z,10.57
2022-12-16T13:04:59.916Z,11.95
2022-12-16T13:07:45.730Z,9.27
2022-12-16T13:10:39.148Z,9.95
2022-12-16T13:16:22.222Z,9.68
2022-12-16T13:19:28.161Z,10.90
2022-12-16T13:22:14.003Z,10.80
2022-12-16T13:25:08.368Z,11.90
2022-12-16T13:28:14.014Z,13.50
2022-12-16T13:31:20.204Z,9.48
2022-12-16T13:34:11.738Z,10.95
2022-12-16T13:36:58.559Z,10.50
2022-12-16T13:39:46.560Z,9.70
2022-12-16T13:43:09.577Z,11.52
2022-12-16T13:45:57.310Z,8.77
2022-12-16T13:48:48.805Z,12.10
2022-12-16T13:51:56.279Z,10.65
2022-12-16T13:55:00.435Z,10.68
2022-12-16T13:57:49.270Z,14.55
2022-12-16T14:00:41.824Z,12.23
2022-12-16T14:03:37.796Z,13.85
2022-12-16T14:06:29.814Z,11.68
2022-12-16T14:09:15.555Z,10.75
2022-12-16T14:12:19.376Z,11.95
2022-12-16T14:15:14.683Z,12.52
2022-12-16T14:18:10.161Z,15.52
2022-12-16T14:21:05.848Z,11.65
2022-12-16T14:24:04.362Z,15.82
2022-12-16T14:26:54.709Z,13.18
2022-12-16T14:29:48.605Z,12.60
2022-12-16T14:32:53.779Z,13.65
2022-12-16T14:35:42.567Z,15.80
2022-12-16T14:38:49.905Z,12.35
2022-12-16T14:41:43.262Z,13.02
2022-12-16T14:47:21.938Z,14.50
2022-12-16T14:50:10.638Z,16.50
2022-12-16T14:52:56.811Z,16.60
2022-12-16T14:55:52.630Z,15.43
2022-12-16T14:58:40.844Z,15.20
2022-12-16T15:01:37.860Z,14.50
2022-12-16T15:04:33.675Z,15.82
2022-12-16T15:07:23.971Z,16.05
2022-12-16T15:10:14.609Z,15.05
2022-12-16T15:13:06.109Z,15.82
2022-12-16T15:15:56.992Z,13.98
2022-12-16T15:18:52.968Z,13.15
2022-12-16T15:21:38.800Z,14.73
2022-12-16T15:24:29.306Z,13.90
2022-12-16T15:27:35.126Z,16.55
2022-12-16T15:30:20.674Z,29.13
2022-12-16T15:33:12.044Z,14.02
2022-12-16T15:35:58.336Z,15.25
2022-12-16T15:38:47.164Z,14.38
2022-12-16T15:41:45.590Z,14.10
2022-12-16T15:44:44.161Z,16.75
2022-12-16T15:47:51.137Z,15.75
2022-12-16T15:50:40.276Z,13.35
2022-12-16T15:53:46.576Z,17.80
2022-12-16T15:56:40.085Z,13.88
2022-12-16T15:59:46.881Z,14.55
2022-12-16T16:02:45.307Z,14.70
2022-12-16T16:05:33.952Z,14.65
2022-12-16T16:08:19.958Z,17.02
2022-12-16T16:11:05.791Z,14.40
2022-12-16T16:13:51.572Z,15.27
2022-12-16T16:16:37.908Z,15.38
2022-12-16T16:19:28.256Z,16.00
2022-12-16T16:22:13.904Z,38.00
2022-12-16T16:24:59.739Z,19.85
2022-12-16T16:27:47.009Z,18.23
2022-12-16T16:30:32.569Z,14.82
2022-12-16T16:33:18.396Z,15.77
2022-12-16T16:36:04.371Z,14.55
2022-12-16T16:38:50.121Z,17.88
2022-12-16T16:41:36.796Z,17.55
2022-12-16T16:44:22.402Z,15.05
2022-12-16T16:47:08.496Z,14.65
2022-12-16T16:49:58.937Z,15.50
2022-12-16T16:52:45.732Z,14.00
2022-12-16T16:55:50.179Z,13.68
2022-12-16T16:58:45.626Z,15.00
2022-12-16T17:01:33.029Z,15.38
2022-12-16T17:04:19.385Z,17.05
2022-12-16T17:07:04.970Z,15.75
2022-12-16T17:09:50.895Z,13.75
2022-12-16T17:12:45.836Z,12.80
2022-12-16T17:15:58.228Z,12.82
2022-12-16T17:18:47.758Z,14.77
2022-12-16T17:21:36.382Z,14.50
2022-12-16T17:24:22.012Z,16.25
2022-12-16T17:27:08.003Z,14.60
2022-12-16T17:29:53.750Z,16.92
2022-12-16T17:32:39.502Z,15.02
2022-12-16T17:35:25.127Z,15.15
2022-12-16T17:38:10.873Z,15.13
2022-12-16T17:40:56.495Z,15.73
2022-12-16T17:43:41.944Z,16.00
2022-12-16T17:46:30.292Z,15.07
2022-12-16T17:49:17.726Z,14.32
2022-12-16T17:52:03.241Z,16.42
2022-12-16T17:54:49.160Z,15.57
2022-12-16T17:57:34.783Z,15.77
2022-12-16T18:00:20.650Z,13.70
2022-12-16T18:03:06.488Z,16.88
2022-12-16T18:05:52.067Z,16.23
2022-12-16T18:08:37.822Z,15.88
2022-12-16T18:11:23.390Z,16.88
2022-12-16T18:14:08.949Z,16.40
2022-12-16T18:16:54.920Z,16.45
2022-12-16T18:19:40.388Z,23.23
2022-12-16T18:22:25.815Z,16.23
2022-12-16T18:25:11.587Z,15.98
2022-12-16T18:27:58.405Z,15.57
2022-12-16T18:30:44.286Z,17.88
2022-12-16T18:33:30.194Z,17.17
2022-12-16T18:36:16.041Z,18.75
2022-12-16T18:39:01.930Z,20.42
2022-12-16T18:41:47.635Z,23.75
2022-12-16T18:44:33.516Z,25.38
2022-12-16T18:47:19.122Z,22.88
2022-12-16T18:50:04.884Z,23.60
2022-12-16T18:52:50.895Z,24.48
2022-12-16T18:55:36.658Z,26.83
2022-12-16T18:58:49.814Z,26.73
2022-12-16T19:01:30.772Z,26.98
2022-12-16T19:04:17.298Z,29.48
2022-12-16T19:07:03.127Z,29.15
2022-12-16T19:09:48.828Z,26.30
2022-12-16T19:12:34.510Z,35.05
2022-12-16T19:15:20.278Z,36.40
2022-12-16T19:18:06.077Z,35.85
2022-12-16T19:20:51.650Z,39.83
2022-12-16T19:23:37.443Z,38.13
2022-12-16T19:26:24.153Z,31.25
2022-12-16T19:29:09.979Z,42.75
2022-12-16T19:31:56.037Z,42.63
2022-12-16T19:34:41.609Z,40.35
2022-12-16T19:37:27.413Z,47.45
2022-12-16T19:40:13.194Z,44.22
2022-12-16T19:42:58.750Z,45.90
2022-12-16T19:45:44.623Z,49.00
2022-12-16T19:48:30.280Z,40.90
2022-12-16T19:51:20.949Z,43.33
2022-12-16T19:54:06.782Z,47.17
2022-12-16T19:56:52.568Z,41.78
2022-12-16T19:59:41.345Z,36.75
2022-12-16T20:02:32.097Z,31.60
2022-12-16T20:05:18.504Z,33.25
2022-12-16T20:08:04.680Z,31.27
2022-12-16T20:10:50.389Z,29.38
2022-12-16T20:13:39.379Z,28.55
2022-12-16T20:16:27.791Z,25.10
2022-12-16T20:19:14.485Z,20.52
2022-12-16T20:22:06.263Z,21.80
2022-12-16T20:27:59.366Z,22.00
2022-12-16T20:30:45.076Z,19.23
2022-12-16T20:33:38.669Z,16.65
2022-12-16T20:36:35.218Z,17.15
2022-12-16T20:39:20.894Z,16.42
2022-12-16T20:42:06.791Z,15.60
2022-12-16T20:44:52.154Z,16.08
2022-12-16T20:47:48.662Z,14.73
2022-12-16T20:50:34.428Z,16.73
2022-12-16T20:53:20.319Z,17.35
2022-12-16T20:56:05.706Z,15.68
2022-12-16T20:58:51.766Z,17.15
2022-12-16T21:01:37.802Z,15.35
2022-12-16T21:04:24.276Z,15.13
2022-12-16T21:07:09.554Z,16.42
2022-12-16T21:09:56.211Z,18.08
2022-12-16T21:12:42.130Z,19.73
2022-12-16T21:15:28.345Z,17.20
2022-12-16T21:18:17.580Z,17.38
2022-12-16T21:21:03.196Z,16.40
2022-12-16T21:23:48.537Z,18.63
2022-12-16T21:26:33.954Z,19.33
2022-12-16T21:29:19.691Z,16.25
2022-12-16T21:32:05.646Z,17.63
2022-12-16T21:34:51.839Z,16.98
2022-12-16T21:37:37.659Z,17.55
2022-12-16T21:40:24.874Z,19.77
2022-12-16T21:43:11.159Z,19.40
2022-12-16T21:45:56.703Z,18.48
2022-12-16T21:48:42.605Z,19.00
2022-12-16T21:51:28.407Z,20.92
2022-12-16T21:54:13.956Z,22.67
2022-12-16T21:56:59.814Z,20.73
2022-12-16T21:59:45.492Z,18.52
2022-12-16T22:02:32.462Z,21.10
2022-12-16T22:05:18.246Z,18.70
2022-12-16T22:08:24.124Z,17.85
2022-12-16T22:11:09.840Z,18.83
2022-12-16T22:13:56.336Z,20.20
2022-12-16T22:16:41.949Z,20.13
2022-12-16T22:19:27.736Z,20.52
2022-12-16T22:25:17.894Z,19.63
2022-12-16T22:28:03.656Z,19.15
2022-12-16T22:30:49.667Z,20.85
2022-12-16T22:33:35.486Z,18.67
2022-12-16T22:36:25.679Z,19.40
2022-12-16T22:39:12.021Z,19.08
2022-12-16T22:41:57.794Z,19.75
2022-12-16T22:44:43.227Z,21.55
2022-12-16T22:47:29.123Z,23.17
2022-12-16T22:50:14.523Z,22.40
2022-12-16T22:53:00.253Z,22.23
2022-12-16T22:55:47.544Z,22.73
2022-12-16T22:58:33.140Z,23.80
2022-12-16T23:01:19.017Z,23.98
2022-12-16T23:04:04.837Z,22.77
2022-12-16T23:06:50.505Z,24.42
2022-12-16T23:09:36.397Z,23.17
2022-12-16T23:12:22.597Z,20.48
2022-12-16T23:15:08.423Z,24.73
2022-12-16T23:17:55.197Z,22.92
2022-12-16T23:20:41.999Z,22.77
2022-12-16T23:23:27.727Z,18.83
2022-12-16T23:26:17.878Z,20.02
2022-12-16T23:29:03.291Z,20.52
2022-12-16T23:31:49.265Z,18.15
2022-12-16T23:34:34.896Z,20.85
2022-12-16T23:37:20.671Z,20.85
2022-12-16T23:40:06.540Z,20.90
2022-12-16T23:42:52.239Z,19.25
2022-12-16T23:45:38.028Z,19.67
2022-12-16T23:48:26.300Z,17.85
2022-12-16T23:51:11.876Z,25.25
2022-12-16T23:53:58.844Z,23.08
2022-12-16T23:56:45.116Z,21.70
2022-12-16T23:59:30.728Z,22.58
